Архив погоды в Ветлуге

Метеограмма Ветлуга
Суббота, 23 Июня
Время местн. Темп Ветер Видим Явления Облачность нижн/средн/верх Атм. давл. Влжн Точка росы ВНГО R Сост. почвы Tg s
Напр Скр Прв ур.ст ур.м изм
15:00 +30° Ю 2 4 20 км - переменная облачность 748 759 -0.2 38% +14.1° 1.5 км - - - -
12:00 +28.8° Ю 2 5 20 км - переменная облачность 748 759 +0.2 39% +13.3° 1.5 км - - - -
09:00 +24.5° Ю 2 4 20 км - ясно 748 759 -0.2 55% +14.8° более 2.5 км - - - -
06:00 +17° штиль 0 0 20 км - переменная облачность 748 760 +0.6 77% +13° более 2.5 км - Влажная (без луж) - -
03:00 +11.9° штиль 0 0 20 км - переменная облачность 747 759 +0.5 92% +10.7° более 2.5 км - - - -
00:00 +13.5° штиль 0 2 20 км - переменная облачность 747 759 0 89% +11.7° 1.5 км - - - -
Пятница, 22 Июня
Время местн. Темп Ветер Видим Явления Облачность нижн/средн/верх Атм. давл. Влжн Точка росы ВНГО R Сост. почвы Tg s
Напр Скр Прв ур.ст ур.м изм
21:00 +19.6° З,Ю-З 1 4 20 км - переменная облачность 747 759 +0.3 55% +10.4° более 2.5 км - - - -
18:00 +25° З 2 7 20 км - переменная облачность 746 758 -0.5 34% +8° более 2.5 км 0 - - -
15:00 +24.5° З 3 7 20 км - облачно с прояснениями 747 759 -0.4 32% +6.8° более 2.5 км - - - -
12:00 +22.5° З,С-З 3 6 20 км - облачно с прояснениями 747 759 0 33% +5.6° 1 км - - - -
09:00 +20.1° З,С-З 2 5 20 км - облачно с прояснениями 747 759 +0.8 41% +6.4° 1 км - - - -
06:00 +13.2° З,С-З 1 3 20 км - облачно 746 759 +0.9 62% +6.2° более 2.5 км - Сырая (есть малые или большие лужи) - -
03:00 +10.7° З,С-З 1 3 20 км - преимущественно облачно 746 758 +1.2 67% +4.8° более 2.5 км - - - -
00:00 +13.2° З 3 5 20 км - переменная облачность 744 756 +1.2 57% +4.8° 1.5 км - - - -
Четверг, 21 Июня
Время местн. Темп Ветер Видим Явления Облачность нижн/средн/верх Атм. давл. Влжн Точка росы ВНГО R Сост. почвы Tg s
Напр Скр Прв ур.ст ур.м изм
21:00 +16.8° З 2 4 20 км - переменная облачность 743 755 +1.8 42% +3.8° 1.5 км - - - -
18:00 +20.7° З,С-З 5 12 20 км - переменная облачность 741 753 +1.3 30% +2.7° 1 км - - - -
15:00 +20.9° З 6 13 20 км - облачно с прояснениями 740 752 +0.8 31% +3.2° 1 км - - - -
12:00 +19.2° З 7 16 20 км - облачно с прояснениями 739 751 -0.3 38% +4.5° 1 км - - - -
09:00 +16.8° З 7 13 20 км - переменная облачность 740 751 +0.1 51% +6.7° 1.5 км - - - -
06:00 +11.9° З 4 8 20 км - переменная облачность 739 751 +0.2 77% +8° 1.5 км - Сырая (есть малые или большие лужи) - -
03:00 +10.3° З 3 7 20 км - облачно 739 751 -0.2 87% +8.2° 1 км - - - -
00:00 +10.9° З 3 7 20 км - облачно с прояснениями 740 752 0 79% +7.4° 1 км - - - -
Среда, 20 Июня
Время местн. Темп Ветер Видим Явления Облачность нижн/средн/верх Атм. давл. Влжн Точка росы ВНГО R Сост. почвы Tg s
Напр Скр Прв ур.ст ур.м изм
21:00 +11° Ю-З 2 19 20 км небо без изменений {ливневые осадки} облачно с прояснениями 740 752 -0.8 80% +7.7° 1.5 км - - - -
18:00 +15° З,С-З 8 19 20 км слабый ливневый дождь облачно 740 752 +1.7 64% +8.2° 1 км 6 - - -
15:00 +18° З 6 15 20 км небо без изменений {ливневые осадки} преимущественно облачно 739 750 +0.4 44% +5.5° 1 км - - - -
12:00 +16.7° З 5 11 20 км небо без изменений {ливневые осадки} преимущественно облачно 738 750 +0.3 67% +10.5° 1 км - - - -